Latest Weather Observations for Dubbo

IDN60801

Issued at 8:32 pm EST Sunday 16 June 2019 (issued every 10 minutes, with the page automatically refreshed every 10 minutes)

About weather observations | Map of weather stations | Latest weather observations for NSW | Other Formats
Station Details ID: 065070 Name: DUBBO AIRPORT AWS Lat: -32.22 Lon: 148.58 Height: 284.0 m
Data from the previous 72 hours. | See also: Recent months at Dubbo
Date/Time
EST
Temp
°C
App
Temp
°C
Dew
Point
°C
Rel
Hum
%
Delta-T
°C
Wind Press
QNH
hPa
Press
MSL
hPa
Rain since
9am
mm
Dir  Spd
km/h
Gust
km/h
Spd
kts
Gust
kts
16/08:30pm 7.3 4.5 5.3 87 0.9 SE 9 11 5 6 1020.6 1020.8 0.0
16/08:00pm 7.8 4.3 5.6 86 1.0 SE 13 13 7 7 1020.4 1020.6 0.0
16/07:30pm 8.6 6.3 5.5 81 1.4 SSW 7 7 4 4 1019.8 1020.0 0.0
16/07:00pm 8.7 6.0 5.6 81 1.4 SW 9 9 5 5 1019.5 1019.8 0.0
16/06:30pm 9.6 8.7 6.1 79 1.6 CALM 0 0 0 0 1019.5 1019.8 0.0
16/06:00pm 9.7 8.7 5.7 76 1.9 CALM 0 0 0 0 1019.5 1019.8 0.0
16/05:30pm 10.6 8.5 5.8 72 2.3 SE 6 7 3 4 1019.3 1019.5 0.0
16/05:00pm 11.3 9.0 5.6 68 2.7 SE 7 9 4 5 1019.1 1019.3 0.0
16/04:30pm 12.8 9.7 5.5 61 3.5 SSE 11 15 6 8 1019.2 1019.4 0.0
16/04:00pm 13.8 11.1 5.4 57 4.0 SSE 9 13 5 7 1019.2 1019.4 0.0
16/03:30pm 14.0 11.0 5.9 58 3.9 SE 11 13 6 7 1019.2 1019.4 0.0
16/03:00pm 13.6 10.6 6.2 61 3.6 SSE 11 15 6 8 1019.1 1019.3 0.0
16/02:30pm 13.1 10.1 6.0 62 3.4 SSE 11 15 6 8 1019.1 1019.3 0.0
16/02:00pm 13.2 9.1 6.3 63 3.3 SE 17 22 9 12 1018.9 1019.1 0.0
16/01:30pm 13.0 9.3 6.4 64 3.2 SSE 15 20 8 11 1019.0 1019.2 0.0
16/01:00pm 13.2 9.2 6.5 64 3.2 SSE 17 24 9 13 1019.2 1019.4 0.0
16/12:30pm 12.5 7.8 5.9 64 3.2 SSE 20 26 11 14 1019.7 1019.9 0.0
16/12:00pm 11.0 6.3 6.0 71 2.4 SE 20 26 11 14 1020.4 1020.6 0.0
16/11:30am 10.6 6.1 6.2 74 2.1 SSE 19 22 10 12 1021.0 1021.2 0.0
16/11:00am 10.1 6.0 6.3 77 1.8 SSE 17 20 9 11 1021.4 1021.6 0.0
16/10:30am 9.2 4.6 5.8 79 1.6 SE 19 24 10 13 1021.5 1021.7 0.0
16/10:00am 8.6 3.8 5.5 81 1.4 SSE 20 26 11 14 1021.5 1021.7 0.0
16/09:30am 8.0 4.1 5.3 83 1.2 SE 15 20 8 11 1022.2 1022.4 0.0
16/09:00am 6.8 3.6 5.0 88 0.8 SE 11 15 6 8 1022.0 1022.2 0.2
16/08:30am 6.0 1.2 4.5 90 0.7 SSE 19 24 10 13 1021.2 1021.4 0.2
16/08:00am 5.1 -0.4 4.1 93 0.4 SSE 22 28 12 15 1020.2 1020.4 0.2
16/07:30am 4.5 -1.1 3.6 94 0.4 SSE 22 26 12 14 1020.4 1020.6 0.2
16/07:00am 4.1 -1.1 3.4 95 0.3 SSE 20 26 11 14 1020.3 1020.5 0.2
16/06:30am 4.3 -0.9 3.6 95 0.3 SE 20 24 11 13 1020.0 1020.2 0.2
16/06:00am 4.2 -1.0 3.3 94 0.4 SE 20 20 11 11 1020.2 1020.4 0.2
16/05:30am 5.2 0.1 3.9 91 0.6 SSE 20 24 11 13 1020.2 1020.4 0.2
16/05:00am 4.8 0.6 3.9 94 0.4 SSE 15 20 8 11 1020.1 1020.3 0.2
16/04:30am 3.9 -0.8 3.3 96 0.2 SSE 17 19 9 10 1019.5 1019.8 0.2
16/04:00am 3.8 -0.9 3.1 95 0.3 SE 17 19 9 10 1019.5 1019.8 0.2
16/03:30am 4.5 -0.5 3.8 95 0.3 SE 19 20 10 11 1019.8 1020.0 0.2
16/03:00am 4.6 -0.3 3.9 95 0.3 SE 19 20 10 11 1020.1 1020.3 0.2
16/02:30am 5.2 0.2 4.5 95 0.3 SSE 20 24 11 13 1020.3 1020.5 0.2
16/02:00am 5.5 1.1 4.6 94 0.4 SSE 17 20 9 11 1020.4 1020.6 0.2
16/01:30am 5.0 0.1 4.3 95 0.3 SE 19 20 10 11 1020.6 1020.8 0.2
16/01:00am 4.6 0.3 3.4 92 0.5 SE 15 17 8 9 1020.8 1021.0 0.2
16/12:30am 7.6 3.7 5.2 85 1.1 SSE 15 19 8 10 1021.0 1021.2 0.2
16/12:00am 7.7 3.4 5.3 85 1.1 S 17 20 9 11 1021.2 1021.4 0.2
 
Date/Time
EST
Temp
°C
App
Temp
°C
Dew
Point
°C
Rel
Hum
%
Delta-T
°C
Wind Press
QNH
hPa
Press
MSL
hPa
Rain since
9am
mm
Dir  Spd
km/h
Gust
km/h
Spd
kts
Gust
kts
15/11:30pm 8.0 4.1 5.5 84 1.1 SSE 15 19 8 10 1021.4 1021.6 0.2
15/11:00pm 8.0 4.2 5.6 85 1.1 S 15 19 8 10 1021.5 1021.7 0.2
15/10:30pm 7.6 4.0 5.2 85 1.1 SSE 13 15 7 8 1021.8 1022.0 0.2
15/10:00pm 7.9 4.3 4.8 81 1.4 S 13 15 7 8 1021.7 1021.9 0.2
15/09:30pm 8.3 4.3 5.1 80 1.5 SSE 15 19 8 10 1021.5 1021.7 0.2
15/09:00pm 7.1 2.9 3.7 79 1.5 SSE 15 17 8 9 1021.5 1021.7 0.2
15/08:30pm 7.3 3.5 3.7 78 1.6 SSE 13 15 7 8 1021.5 1021.7 0.2
15/08:00pm 8.8 5.1 4.2 73 2.0 SSE 13 15 7 8 1021.3 1021.5 0.2
15/07:30pm 9.1 5.3 3.9 70 2.3 S 13 13 7 7 1021.4 1021.6 0.2
15/07:00pm 9.3 5.5 3.9 69 2.4 S 13 13 7 7 1021.2 1021.4 0.2
15/06:30pm 10.2 6.7 3.7 64 2.9 S 11 13 6 7 1020.9 1021.1 0.2
15/06:00pm 10.7 6.8 3.5 61 3.2 S 13 17 7 9 1020.6 1020.8 0.2
15/05:30pm 11.4 7.6 3.7 59 3.5 SSW 13 13 7 7 1020.6 1020.8 0.2
15/05:00pm 12.9 9.4 3.6 53 4.2 SSW 11 15 6 8 1020.4 1020.6 0.2
15/04:30pm 14.2 9.4 2.8 46 5.2 SSE 17 22 9 12 1020.2 1020.4 0.2
15/04:00pm 15.7 10.6 2.8 42 5.9 SSE 19 26 10 14 1020.2 1020.4 0.2
15/03:30pm 16.2 11.0 3.3 42 6.0 SE 20 28 11 15 1020.1 1020.3 0.2
15/03:00pm 17.0 11.6 2.2 37 6.7 SE 20 28 11 15 1020.1 1020.3 0.2
15/02:30pm 17.0 12.5 4.3 43 6.1 SSE 17 28 9 15 1020.2 1020.4 0.2
15/02:00pm 17.0 12.9 4.3 43 6.0 SSE 15 20 8 11 1020.4 1020.6 0.2
15/01:30pm 16.1 11.3 4.5 46 5.5 SSE 19 30 10 16 1020.6 1020.8 0.2
15/01:00pm 16.5 12.0 6.1 50 5.1 SE 19 24 10 13 1021.0 1021.2 0.2
15/12:30pm 15.3 11.7 6.6 56 4.3 SSE 15 26 8 14 1021.2 1021.4 0.2
15/12:00pm 14.7 10.4 7.0 60 3.8 SSE 19 28 10 15 1021.8 1022.0 0.2
15/11:30am 13.9 9.9 6.7 62 3.5 S 17 22 9 12 1022.4 1022.7 0.2
15/11:00am 13.0 8.7 7.0 67 2.9 SSE 19 24 10 13 1022.8 1023.1 0.2
15/10:30am 11.6 6.9 5.9 68 2.7 SSE 20 24 11 13 1023.0 1023.3 0.2
15/10:00am 10.8 6.8 6.6 75 2.0 SE 17 20 9 11 1023.0 1023.3 0.0
15/09:30am 9.0 4.9 6.3 83 1.3 SE 17 20 9 11 1022.9 1023.2 0.0
15/09:00am 7.6 3.0 5.6 87 0.9 SE 19 22 10 12 1022.6 1022.9 0.0
15/08:30am 6.2 1.5 5.2 93 0.4 SE 19 22 10 12 1022.3 1022.5 0.0
15/08:00am 5.1 0.3 4.7 97 0.2 SE 19 20 10 11 1022.0 1022.2 0.0
15/07:30am 3.7 -0.9 3.6 99 0.0 SE 17 19 9 10 1021.9 1022.1 0.0
15/07:00am 2.8 -2.0 2.5 98 0.1 SE 17 19 9 10 1021.7 1021.9 0.0
15/06:30am 2.2 -1.6 1.6 96 0.2 SE 11 13 6 7 1021.4 1021.6 0.0
15/06:00am 3.5 -1.2 3.1 97 0.2 SSE 17 19 9 10 1021.0 1021.2 0.0
15/05:30am 3.9 -0.3 3.6 98 0.1 SSE 15 17 8 9 1020.7 1020.9 0.0
15/05:00am 4.0 -0.2 3.7 98 0.1 SSE 15 17 8 9 1020.6 1020.8 0.0
15/04:30am 3.9 0.0 3.6 98 0.1 SSE 13 15 7 8 1020.6 1020.8 0.0
15/04:00am 3.0 -1.0 2.7 98 0.1 SE 13 13 7 7 1020.5 1020.7 0.0
15/03:30am 3.3 -0.7 2.9 97 0.2 SE 13 15 7 8 1020.5 1020.7 0.0
15/03:00am 3.7 -0.2 3.3 97 0.2 SE 13 15 7 8 1020.4 1020.6 0.0
15/02:30am 3.5 -0.9 2.9 96 0.2 SE 15 15 8 8 1020.6 1020.8 0.0
15/02:00am 4.1 -0.2 3.1 93 0.4 SE 15 17 8 9 1020.5 1020.7 0.0
15/01:30am 6.8 2.1 5.3 90 0.7 SSE 19 24 10 13 1020.6 1020.8 0.0
15/01:00am 6.8 2.6 5.7 93 0.5 SSE 17 20 9 11 1020.7 1020.9 0.0
15/12:30am 6.0 1.9 4.2 88 0.8 SSE 15 19 8 10 1021.0 1021.2 0.0
15/12:00am 7.3 2.4 5.3 87 0.9 S 20 24 11 13 1021.0 1021.2 0.0
 
Date/Time
EST
Temp
°C
App
Temp
°C
Dew
Point
°C
Rel
Hum
%
Delta-T
°C
Wind Press
QNH
hPa
Press
MSL
hPa
Rain since
9am
mm
Dir  Spd
km/h
Gust
km/h
Spd
kts
Gust
kts
14/11:30pm 7.2 2.9 5.3 88 0.9 SSE 17 19 9 10 1021.1 1021.3 0.0
14/11:00pm 6.3 2.2 4.6 89 0.7 SSE 15 17 8 9 1021.3 1021.5 0.0
14/10:30pm 5.6 1.5 4.1 90 0.6 SSE 15 15 8 8 1021.4 1021.6 0.0
14/10:00pm 4.7 1.1 2.9 88 0.7 SE 11 13 6 7 1021.4 1021.6 0.0
14/09:30pm 6.0 2.6 3.8 86 0.9 SSE 11 13 6 7 1021.5 1021.7 0.0
14/09:00pm 6.7 3.2 3.5 80 1.4 SSE 11 13 6 7 1021.5 1021.7 0.0
14/08:30pm 8.0 4.3 4.4 78 1.6 SSE 13 15 7 8 1021.4 1021.6 0.0
14/08:00pm 7.5 4.1 4.1 79 1.5 SSE 11 13 6 7 1021.2 1021.4 0.0
14/07:30pm 9.2 5.1 4.4 72 2.2 S 15 19 8 10 1021.0 1021.2 0.0
14/07:00pm 9.7 6.5 5.3 74 2.0 S 11 13 6 7 1020.8 1021.0 0.0
14/06:30pm 8.5 5.8 5.4 81 1.4 S 9 11 5 6 1020.5 1020.7 0.0
14/06:00pm 9.7 7.5 6.1 78 1.7 SSE 7 9 4 5 1020.3 1020.5 0.0
14/05:30pm 9.8 7.6 6.3 79 1.7 SE 7 7 4 4 1019.9 1020.1 0.0
14/05:00pm 12.1 9.8 5.5 64 3.1 SSE 7 7 4 4 1019.5 1019.8 0.0
14/04:30pm 13.4 10.1 4.8 56 4.0 SSE 11 13 6 7 1019.3 1019.5 0.0
14/04:00pm 14.5 10.9 5.0 53 4.5 SSE 13 17 7 9 1019.3 1019.5 0.0
14/03:30pm 15.1 10.3 4.8 50 4.9 SSE 19 24 10 13 1019.2 1019.4 0.0
14/03:00pm 15.2 10.7 4.3 48 5.1 SSE 17 22 9 12 1019.2 1019.4 0.0
14/02:30pm 15.3 11.0 5.2 51 4.9 SSE 17 24 9 13 1019.2 1019.4 0.0
14/02:00pm 15.6 11.7 7.1 57 4.2 SSE 17 22 9 12 1019.3 1019.5 0.0
14/01:30pm 15.4 11.6 7.4 59 4.0 SSE 17 22 9 12 1019.7 1019.9 0.0
14/01:00pm 14.7 10.4 6.8 59 3.9 SSE 19 24 10 13 1020.0 1020.2 0.0
14/12:30pm 13.4 9.9 7.4 67 3.0 SE 15 20 8 11 1020.5 1020.7 0.0
14/12:00pm 12.3 8.5 7.4 72 2.4 SSE 17 22 9 12 1020.9 1021.1 0.0
14/11:30am 11.0 8.0 7.7 80 1.6 SE 13 19 7 10 1021.3 1021.5 0.0
14/11:00am 9.0 6.0 7.9 93 0.5 SE 13 17 7 9 1022.0 1022.2 0.0
14/10:30am 8.3 5.4 8.3 100 0.0 SSE 13 20 7 11 1022.4 1022.7 0.0
14/10:16am 7.7 4.7 7.7 100 0.0 SE 13 17 7 9 1022.5 1022.8 0.0
14/10:04am 8.1 5.2 8.1 100 0.0 SSE 13 17 7 9 1022.2 1022.4 0.0
14/10:00am 7.2 4.1 7.2 100 0.0 SSE 13 17 7 9 1022.2 1022.4 0.0
14/09:30am 6.8 3.6 6.8 100 0.0 SSE 13 15 7 8 1022.0 1022.2 0.0
14/09:00am 6.4 3.1 6.4 100 0.0 SSE 13 17 7 9 1021.9 1022.1 4.2
14/08:30am 6.5 3.6 6.5 100 0.0 SE 11 15 6 8 1021.5 1021.7 4.2
14/08:00am 6.0 2.6 6.0 100 0.0 SE 13 15 7 8 1021.3 1021.5 4.2
14/07:30am 6.3 3.4 6.3 100 0.0 ESE 11 13 6 7 1021.3 1021.5 4.2
14/07:00am 6.4 3.1 6.4 100 0.0 ESE 13 15 7 8 1021.1 1021.3 4.2
14/06:30am 6.5 4.4 6.5 100 0.0 ESE 7 9 4 5 1021.0 1021.2 4.2
14/06:00am 6.6 4.5 6.6 100 0.0 E 7 9 4 5 1020.7 1020.9 4.2
14/05:30am 6.8 4.4 6.8 100 0.0 ESE 9 13 5 7 1020.6 1020.8 4.2
14/05:00am 7.1 5.1 7.1 100 0.0 SE 7 13 4 7 1020.3 1020.5 4.2
14/04:30am 7.2 5.4 7.2 100 0.0 SE 6 9 3 5 1020.3 1020.5 4.2
14/04:00am 7.6 5.3 7.6 100 0.0 SSE 9 13 5 7 1020.1 1020.3 4.2
14/03:30am 7.9 4.9 7.9 100 0.0 SE 13 17 7 9 1020.2 1020.4 4.2
14/03:00am 8.5 6.5 8.5 100 0.0 ESE 9 13 5 7 1020.1 1020.3 4.2
14/02:30am 8.6 7.0 8.6 100 0.0 SE 7 11 4 6 1020.3 1020.5 4.2
14/02:00am 8.4 6.7 8.4 100 0.0 ESE 7 11 4 6 1020.1 1020.3 4.2
14/01:30am 8.5 6.5 8.5 100 0.0 SE 9 15 5 8 1020.5 1020.7 4.2
14/01:00am 8.9 7.0 8.9 100 0.0 SE 9 13 5 7 1020.4 1020.6 4.2
14/12:30am 8.8 6.8 8.8 100 0.0 SE 9 13 5 7 1020.5 1020.7 4.2
14/12:00am 8.9 7.0 8.9 100 0.0 SE 9 13 5 7 1020.7 1020.9 4.2
 
Date/Time
EST
Temp
°C
App
Temp
°C
Dew
Point
°C
Rel
Hum
%
Delta-T
°C
Wind Press
QNH
hPa
Press
MSL
hPa
Rain since
9am
mm
Dir  Spd
km/h
Gust
km/h
Spd
kts
Gust
kts
13/11:30pm 8.6 6.9 8.5 99 0.0 ESE 7 9 4 5 1020.7 1020.9 4.0
13/11:00pm 8.8 7.2 8.7 99 0.0 SE 7 9 4 5 1020.7 1020.9 4.0
13/10:30pm 8.9 7.5 8.8 99 0.0 SE 6 7 3 4 1020.8 1021.0 4.0
13/10:00pm 9.4 8.1 9.3 99 0.1 ESE 6 9 3 5 1020.7 1020.9 4.0
13/09:30pm 10.5 9.4 10.5 100 0.0 SW 7 9 4 5 1020.7 1020.9 4.0
13/09:00pm 11.1 11.5 11.1 100 0.0 CALM 0 0 0 0 1020.7 1020.9 4.0

Other formats

Comma delimited format used in spreadsheet applications
http://www.bom.gov.au/fwo/IDN60801/IDN60801.95719.axf

JavaScript Object Notation format (JSON) in row-major order
http://www.bom.gov.au/fwo/IDN60801/IDN60801.95719.json

Data quality

Most of these data are generated automatically and are frequently updated. Quality checks on data are not normally performed. It is possible for incorrect values to appear. Refer to information at About Latest Weather Observations and please check the disclaimer before using these data.